Time;durP1;ratioP1;P1;durP2;ratioP2;P2;SDS_P1;SDS_P2;PMS_P1;PMS_P2;Temp;Humidity;BMP_temperature;BMP_pressure;BME280_temperature;BME280_humidity;BME280_pressure;Samples;Min_cycle;Max_cycle;Signal;HPM_P1;HPM_P2
2021/09/09 00:00:47;;;;;;;9.60;7.63;;;18.50;66.40;;;;;;5079181;28;20452;-77
2021/09/09 00:03:13;;;;;;;11.60;8.10;;;18.50;67.20;;;;;;5076737;28;20443;-76
2021/09/09 00:05:41;;;;;;;9.67;7.47;;;18.50;67.20;;;;;;5077346;28;20461;-78
2021/09/09 00:08:07;;;;;;;8.73;7.43;;;18.50;67.50;;;;;;5075016;28;20431;-80
2021/09/09 00:10:34;;;;;;;8.90;8.00;;;18.50;67.40;;;;;;5057547;28;20518;-78
2021/09/09 00:13:03;;;;;;;7.67;6.87;;;18.50;67.80;;;;;;5055275;28;20462;-76
2021/09/09 00:15:30;;;;;;;9.43;7.80;;;18.40;68.60;;;;;;5054500;28;20554;-76
2021/09/09 00:17:57;;;;;;;10.40;8.40;;;18.40;68.90;;;;;;5053884;28;20487;-76
2021/09/09 00:20:24;;;;;;;9.83;7.70;;;18.40;69.60;;;;;;5053979;28;20449;-76
2021/09/09 00:22:51;;;;;;;8.70;7.40;;;18.30;69.70;;;;;;5053251;28;20453;-76
2021/09/09 00:25:18;;;;;;;14.93;8.37;;;18.30;70.20;;;;;;5053728;28;20893;-77
2021/09/09 00:27:45;;;;;;;8.80;7.50;;;18.30;70.50;;;;;;5053629;28;20941;-78
2021/09/09 00:30:14;;;;;;;8.70;7.80;;;18.20;71.50;;;;;;5067576;22;20432;-74
2021/09/09 00:32:41;;;;;;;8.20;7.40;;;18.20;71.90;;;;;;5013406;28;20463;-72
2021/09/09 00:35:08;;;;;;;11.40;7.93;;;18.20;71.80;;;;;;5013246;28;20556;-72
2021/09/09 00:37:35;;;;;;;9.90;8.27;;;18.20;72.20;;;;;;5012934;28;20552;-72
2021/09/09 00:40:02;;;;;;;9.40;7.77;;;18.10;72.40;;;;;;5012851;28;20508;-72
2021/09/09 00:42:29;;;;;;;8.57;7.77;;;18.10;72.80;;;;;;5012577;28;20493;-72
2021/09/09 00:44:56;;;;;;;9.87;8.27;;;18.00;72.90;;;;;;5012507;28;20437;-73
2021/09/09 00:47:24;;;;;;;8.40;7.60;;;18.00;73.70;;;;;;5012919;28;20857;-72
2021/09/09 00:49:51;;;;;;;8.97;8.17;;;18.00;74.90;;;;;;5012290;28;20523;-72
2021/09/09 00:52:19;;;;;;;11.33;7.30;;;17.90;74.80;;;;;;5012654;28;20865;-72
2021/09/09 00:54:47;;;;;;;10.03;8.60;;;17.90;74.80;;;;;;5012497;28;20922;-72
2021/09/09 00:57:16;;;;;;;9.23;7.60;;;17.90;74.80;;;;;;5012952;28;20444;-72
2021/09/09 00:59:44;;;;;;;10.20;8.37;;;17.80;74.70;;;;;;5012333;28;20464;-73
2021/09/09 01:02:11;;;;;;;12.50;8.93;;;17.80;75.60;;;;;;5012586;28;20532;-72
2021/09/09 01:04:39;;;;;;;14.93;8.77;;;17.70;76.90;;;;;;5012598;28;20520;-72
2021/09/09 01:07:06;;;;;;;9.13;7.93;;;17.60;78.10;;;;;;5012926;28;20544;-72
2021/09/09 01:09:33;;;;;;;15.00;8.60;;;17.70;78.30;;;;;;5012233;28;20462;-72
2021/09/09 01:12:00;;;;;;;8.87;8.00;;;17.70;78.10;;;;;;5012405;28;20448;-73
2021/09/09 01:14:27;;;;;;;8.77;7.97;;;17.70;78.10;;;;;;5012544;28;20588;-72
2021/09/09 01:16:54;;;;;;;9.50;8.50;;;17.70;77.50;;;;;;5012601;28;20439;-74
2021/09/09 01:19:21;;;;;;;9.60;8.60;;;17.70;77.50;;;;;;5012703;28;20482;-74
2021/09/09 01:21:49;;;;;;;9.90;8.03;;;17.70;77.50;;;;;;5013911;28;20452;-72
2021/09/09 01:24:18;;;;;;;10.10;8.30;;;17.70;77.70;;;;;;5013598;28;20556;-73
2021/09/09 01:26:51;;;;;;;9.83;7.80;;;17.60;78.50;;;;;;5013923;28;20558;-73
2021/09/09 01:29:20;;;;;;;10.97;8.07;;;17.60;78.90;;;;;;5013744;28;20440;-73
2021/09/09 01:31:47;;;;;;;16.37;7.67;;;17.50;79.60;;;;;;5014086;28;21072;-73
2021/09/09 01:34:17;;;;;;;10.00;7.80;;;17.50;79.60;;;;;;5016756;28;20493;-74
2021/09/09 01:36:44;;;;;;;8.30;7.50;;;17.50;79.10;;;;;;5024336;28;20457;-73
2021/09/09 01:39:12;;;;;;;13.83;8.10;;;17.50;79.30;;;;;;5033278;28;20441;-73
2021/09/09 01:41:40;;;;;;;10.60;8.40;;;17.50;79.70;;;;;;5040152;28;20485;-73
2021/09/09 01:44:07;;;;;;;10.00;7.57;;;17.50;79.80;;;;;;5030418;28;20425;-72
2021/09/09 01:46:34;;;;;;;9.20;7.80;;;17.40;80.50;;;;;;5018778;28;20432;-73
2021/09/09 01:49:02;;;;;;;9.53;8.53;;;17.40;80.70;;;;;;5016819;28;20459;-73
2021/09/09 01:51:29;;;;;;;9.33;8.40;;;17.40;81.80;;;;;;5015759;28;20547;-73
2021/09/09 01:53:56;;;;;;;9.20;8.30;;;17.40;81.80;;;;;;5016548;28;20454;-73
2021/09/09 01:56:23;;;;;;;10.27;8.43;;;17.30;82.00;;;;;;5016584;28;20884;-73
2021/09/09 01:58:51;;;;;;;12.40;8.57;;;17.30;82.60;;;;;;5025362;28;20515;-72
2021/09/09 02:01:19;;;;;;;9.10;8.20;;;17.30;82.80;;;;;;5027751;28;20501;-73
2021/09/09 02:03:46;;;;;;;8.50;7.67;;;17.30;82.90;;;;;;5022830;28;20456;-73
2021/09/09 02:06:14;;;;;;;9.40;7.83;;;17.30;82.90;;;;;;5016105;28;20546;-73
2021/09/09 02:08:41;;;;;;;9.80;8.00;;;17.20;82.90;;;;;;5017042;28;20468;-73
2021/09/09 02:11:08;;;;;;;8.80;8.00;;;17.20;82.80;;;;;;5015355;28;20580;-73
2021/09/09 02:13:36;;;;;;;13.63;8.30;;;17.20;82.80;;;;;;5015502;28;20462;-74
2021/09/09 02:16:05;;;;;;;9.20;8.30;;;17.20;82.80;;;;;;5015753;28;20525;-73
2021/09/09 02:18:32;;;;;;;11.10;7.80;;;17.20;82.90;;;;;;5015957;28;20462;-73
2021/09/09 02:20:59;;;;;;;8.93;8.10;;;17.10;83.40;;;;;;5015938;28;20507;-73
2021/09/09 02:23:26;;;;;;;8.67;7.80;;;17.10;84.10;;;;;;5016869;28;20471;-74
2021/09/09 02:25:53;;;;;;;9.37;8.13;;;17.00;84.60;;;;;;5016613;28;20999;-73
2021/09/09 02:28:20;;;;;;;8.50;7.70;;;17.00;85.20;;;;;;5016929;28;20457;-73
2021/09/09 02:30:47;;;;;;;9.17;8.30;;;16.90;86.50;;;;;;5017126;28;20538;-73
2021/09/09 02:33:15;;;;;;;8.90;8.10;;;16.90;86.60;;;;;;5021343;28;20458;-73
2021/09/09 02:35:42;;;;;;;9.50;8.17;;;16.90;86.70;;;;;;5023837;28;20566;-73
2021/09/09 02:38:09;;;;;;;9.50;8.50;;;16.90;87.10;;;;;;5021903;28;20476;-72
2021/09/09 02:40:36;;;;;;;9.37;7.97;;;16.90;87.00;;;;;;5023844;28;20504;-73
2021/09/09 02:43:03;;;;;;;9.43;7.70;;;16.90;87.20;;;;;;5016523;28;20481;-73
2021/09/09 02:45:30;;;;;;;9.40;8.50;;;16.90;87.20;;;;;;5015007;28;20523;-73
2021/09/09 02:47:57;;;;;;;9.80;8.60;;;16.80;87.20;;;;;;5015420;28;20550;-73
2021/09/09 02:50:26;;;;;;;10.33;9.23;;;16.80;87.40;;;;;;5016221;28;20475;-74
2021/09/09 02:52:53;;;;;;;12.20;9.17;;;16.80;87.50;;;;;;5016246;28;20532;-74
2021/09/09 02:55:20;;;;;;;9.93;8.07;;;16.80;88.00;;;;;;5016551;28;20591;-74
2021/09/09 02:57:47;;;;;;;9.03;7.83;;;16.80;87.80;;;;;;5018292;28;20433;-74
2021/09/09 03:00:14;;;;;;;9.73;8.40;;;16.80;87.70;;;;;;5017927;28;20471;-74
2021/09/09 03:02:42;;;;;;;8.40;7.60;;;16.70;87.40;;;;;;5017166;28;20469;-73
2021/09/09 03:05:11;;;;;;;8.90;8.00;;;16.70;88.80;;;;;;5016565;28;20485;-74
2021/09/09 03:07:39;;;;;;;11.30;7.90;;;16.60;89.20;;;;;;5016755;28;20474;-73
2021/09/09 03:10:07;;;;;;;8.77;7.87;;;16.70;89.80;;;;;;5015877;28;20575;-74
2021/09/09 03:12:34;;;;;;;9.17;7.93;;;16.60;89.60;;;;;;5016665;28;20500;-72
2021/09/09 03:15:02;;;;;;;13.70;8.33;;;16.60;89.60;;;;;;5015926;28;20478;-73
2021/09/09 03:17:29;;;;;;;9.50;8.47;;;16.60;89.80;;;;;;5016022;28;20453;-73
2021/09/09 03:19:56;;;;;;;9.03;8.23;;;16.70;89.90;;;;;;5014716;28;20522;-73
2021/09/09 03:22:23;;;;;;;10.10;8.67;;;16.60;90.00;;;;;;5023661;28;20493;-73
2021/09/09 03:24:51;;;;;;;8.13;7.37;;;16.60;90.00;;;;;;5027325;28;20517;-73
2021/09/09 03:27:18;;;;;;;9.57;8.60;;;16.60;90.30;;;;;;5018150;28;20832;-73
2021/09/09 03:29:45;;;;;;;9.77;8.73;;;16.60;90.30;;;;;;5014551;28;20500;-74
2021/09/09 03:32:11;;;;;;;9.93;7.90;;;16.50;90.20;;;;;;5015667;28;20503;-72
2021/09/09 03:34:38;;;;;;;9.80;8.80;;;16.50;90.20;;;;;;5015635;28;20561;-73
2021/09/09 03:37:05;;;;;;;8.63;7.73;;;16.50;90.70;;;;;;5015878;28;20488;-73
2021/09/09 03:39:32;;;;;;;9.03;8.10;;;16.50;90.90;;;;;;5015587;28;20458;-73
2021/09/09 03:42:00;;;;;;;12.07;9.60;;;16.50;91.00;;;;;;5016190;28;20474;-73
2021/09/09 03:44:28;;;;;;;9.73;8.67;;;16.40;91.30;;;;;;5015650;28;20873;-73
2021/09/09 03:46:55;;;;;;;9.27;8.37;;;16.40;91.80;;;;;;5017236;28;20462;-73
2021/09/09 03:49:22;;;;;;;11.60;8.40;;;16.40;91.60;;;;;;5018137;28;20485;-73
2021/09/09 03:51:49;;;;;;;9.60;8.70;;;16.40;91.40;;;;;;5013921;28;20512;-73
2021/09/09 03:54:15;;;;;;;11.83;9.27;;;16.40;91.20;;;;;;5013647;28;20992;-72
2021/09/09 03:56:42;;;;;;;11.77;9.20;;;16.40;91.20;;;;;;5013076;28;20495;-73
2021/09/09 03:59:11;;;;;;;9.27;8.33;;;16.40;91.10;;;;;;5013371;28;20480;-72
2021/09/09 04:01:37;;;;;;;10.90;8.83;;;16.40;90.90;;;;;;5013927;28;20512;-74
2021/09/09 04:04:04;;;;;;;13.93;9.43;;;16.40;91.00;;;;;;5013952;28;20448;-73
2021/09/09 04:06:31;;;;;;;9.40;7.63;;;16.40;91.10;;;;;;5013387;28;20495;-73
2021/09/09 04:08:58;;;;;;;9.63;8.73;;;16.30;91.10;;;;;;5013809;28;20479;-73
2021/09/09 04:11:25;;;;;;;9.63;8.60;;;16.20;91.30;;;;;;5013255;28;20906;-74
2021/09/09 04:13:52;;;;;;;10.30;9.10;;;16.20;91.90;;;;;;5014097;28;20981;-73
2021/09/09 04:16:20;;;;;;;10.27;9.23;;;16.20;92.20;;;;;;5013226;28;20543;-73
2021/09/09 04:18:47;;;;;;;10.63;9.53;;;16.20;92.30;;;;;;5013566;28;20470;-73
2021/09/09 04:21:14;;;;;;;9.90;8.87;;;16.20;92.90;;;;;;5013509;28;20530;-73
2021/09/09 04:23:41;;;;;;;10.23;9.13;;;16.20;92.70;;;;;;5013686;28;20781;-74
2021/09/09 04:26:08;;;;;;;12.20;9.00;;;16.20;92.50;;;;;;5013226;28;20887;-73
2021/09/09 04:28:35;;;;;;;9.73;8.13;;;16.20;92.50;;;;;;5013206;28;20463;-74
2021/09/09 04:31:01;;;;;;;12.50;9.57;;;16.20;92.70;;;;;;5012931;28;20487;-74
2021/09/09 04:33:30;;;;;;;11.33;9.40;;;16.10;92.90;;;;;;5013593;28;20514;-74
2021/09/09 04:35:57;;;;;;;10.33;9.33;;;16.10;93.70;;;;;;5014536;28;20532;-73
2021/09/09 04:38:23;;;;;;;15.00;9.70;;;16.10;93.50;;;;;;5014745;28;20553;-73
2021/09/09 04:40:50;;;;;;;10.33;9.33;;;16.10;93.80;;;;;;5015419;28;20562;-73
2021/09/09 04:43:17;;;;;;;10.40;9.40;;;16.10;93.80;;;;;;5015781;28;20451;-74
2021/09/09 04:45:44;;;;;;;11.73;9.20;;;16.00;94.20;;;;;;5017238;28;20451;-72
2021/09/09 04:48:11;;;;;;;11.00;9.00;;;15.90;94.70;;;;;;5016708;28;20468;-72
2021/09/09 04:50:40;;;;;;;10.23;8.40;;;15.90;94.80;;;;;;5017556;28;20808;-73
2021/09/09 04:53:07;;;;;;;11.97;9.47;;;15.90;95.20;;;;;;5027176;28;20451;-73
2021/09/09 04:55:34;;;;;;;9.63;8.63;;;16.00;94.70;;;;;;5025517;28;20977;-73
2021/09/09 04:58:01;;;;;;;12.33;10.17;;;16.00;94.60;;;;;;5022309;28;20438;-72
2021/09/09 05:00:28;;;;;;;11.00;9.53;;;16.00;94.50;;;;;;5030497;28;20480;-72
2021/09/09 05:02:55;;;;;;;11.00;9.60;;;16.00;94.90;;;;;;5026940;28;20489;-72
2021/09/09 05:05:22;;;;;;;10.57;9.40;;;16.10;94.60;;;;;;5019785;28;20507;-72
2021/09/09 05:07:50;;;;;;;10.97;8.90;;;16.10;95.00;;;;;;5020473;28;20474;-73
2021/09/09 05:10:17;;;;;;;10.57;9.57;;;16.10;95.10;;;;;;5022426;28;20478;-73
2021/09/09 05:12:44;;;;;;;11.20;9.27;;;16.10;95.30;;;;;;5014734;28;20552;-73
2021/09/09 05:15:12;;;;;;;12.60;9.20;;;16.20;95.00;;;;;;5014623;28;20598;-73
2021/09/09 05:17:39;;;;;;;9.67;8.77;;;16.30;94.30;;;;;;5014491;28;20430;-73
2021/09/09 05:20:07;;;;;;;10.93;9.83;;;16.30;93.90;;;;;;5013744;28;20503;-73
2021/09/09 05:22:35;;;;;;;11.03;9.87;;;16.30;93.90;;;;;;5013794;28;20547;-72
2021/09/09 05:25:05;;;;;;;11.63;9.90;;;16.40;93.90;;;;;;5018960;28;20439;-74
2021/09/09 05:27:32;;;;;;;12.30;9.77;;;16.70;93.40;;;;;;4998370;28;20431;-74
2021/09/09 05:29:59;;;;;;;11.30;8.60;;;16.90;91.70;;;;;;5015267;28;20438;-74
2021/09/09 05:32:26;;;;;;;9.77;8.77;;;17.00;90.30;;;;;;5015386;28;20540;-75
2021/09/09 05:34:53;;;;;;;10.50;9.40;;;17.00;88.60;;;;;;5013656;28;20870;-72
2021/09/09 05:37:20;;;;;;;9.83;8.83;;;17.00;87.00;;;;;;5013436;28;20506;-75
2021/09/09 05:39:47;;;;;;;10.73;9.73;;;17.00;87.50;;;;;;5015062;28;20493;-74
2021/09/09 05:42:16;;;;;;;11.90;9.73;;;17.10;87.00;;;;;;5014994;28;20515;-74
2021/09/09 05:44:43;;;;;;;11.17;9.90;;;17.20;87.00;;;;;;5015058;28;20492;-73
2021/09/09 05:47:10;;;;;;;9.63;8.67;;;17.10;87.00;;;;;;5014966;28;20460;-73
2021/09/09 05:49:37;;;;;;;12.23;9.60;;;17.10;86.80;;;;;;5013443;28;20611;-72
2021/09/09 05:52:05;;;;;;;12.87;9.17;;;17.20;86.70;;;;;;5015244;28;20507;-73
2021/09/09 05:54:32;;;;;;;13.63;9.70;;;17.20;85.50;;;;;;5015408;28;20535;-74
2021/09/09 05:57:00;;;;;;;11.27;9.63;;;17.30;84.80;;;;;;5018877;28;20517;-73
2021/09/09 05:59:29;;;;;;;9.60;8.67;;;17.40;84.40;;;;;;5030542;28;20453;-73
2021/09/09 06:01:57;;;;;;;9.90;8.90;;;17.50;83.10;;;;;;5030731;28;20472;-73
2021/09/09 06:04:24;;;;;;;10.60;8.90;;;17.50;83.10;;;;;;5033636;28;20516;-73
2021/09/09 06:06:51;;;;;;;10.70;9.60;;;17.70;82.30;;;;;;5034232;28;20474;-73
2021/09/09 06:09:18;;;;;;;11.07;9.07;;;17.80;81.20;;;;;;5025162;28;20462;-73
2021/09/09 06:11:45;;;;;;;11.40;9.90;;;17.90;80.30;;;;;;5016369;28;20470;-73
2021/09/09 06:14:13;;;;;;;10.33;9.20;;;17.70;80.30;;;;;;5017460;28;20489;-73
2021/09/09 06:16:42;;;;;;;10.43;9.43;;;17.70;80.10;;;;;;5023787;28;20485;-75
2021/09/09 06:19:09;;;;;;;10.67;9.47;;;17.80;80.20;;;;;;5015192;28;20500;-73
2021/09/09 06:21:36;;;;;;;11.20;9.40;;;17.70;80.90;;;;;;5016502;28;20554;-73
2021/09/09 06:24:06;;;;;;;9.90;8.90;;;17.80;79.80;;;;;;5026791;28;20493;-74
2021/09/09 06:26:33;;;;;;;9.93;9.00;;;18.00;79.60;;;;;;5028086;28;20428;-73
2021/09/09 06:29:00;;;;;;;11.10;8.70;;;18.00;78.90;;;;;;5020721;28;20512;-73
2021/09/09 06:31:27;;;;;;;9.60;8.60;;;18.30;77.00;;;;;;5065999;22;20599;-76
2021/09/09 06:33:55;;;;;;;10.90;9.83;;;18.40;75.30;;;;;;5052408;28;20459;-76
2021/09/09 06:36:22;;;;;;;10.20;8.73;;;18.60;75.20;;;;;;5055181;28;20495;-77
2021/09/09 06:38:51;;;;;;;9.60;8.60;;;18.40;75.20;;;;;;5054275;28;20452;-77
2021/09/09 06:41:18;;;;;;;11.17;10.07;;;18.60;75.50;;;;;;5054958;28;20496;-78
2021/09/09 06:43:45;;;;;;;13.20;10.70;;;18.60;74.90;;;;;;5054879;28;20437;-79
2021/09/09 06:46:12;;;;;;;12.63;9.20;;;18.70;73.90;;;;;;5056377;28;20485;-77
2021/09/09 06:48:39;;;;;;;11.93;9.53;;;18.80;72.50;;;;;;5057337;28;20467;-76
2021/09/09 06:51:07;;;;;;;15.03;9.80;;;18.90;73.00;;;;;;5054505;28;20538;-77
2021/09/09 06:53:34;;;;;;;18.90;9.97;;;19.10;72.50;;;;;;5054992;28;20866;-77
2021/09/09 06:56:01;;;;;;;10.73;9.20;;;19.20;70.80;;;;;;5055052;28;20579;-77
2021/09/09 06:58:28;;;;;;;15.50;9.37;;;19.30;70.10;;;;;;5055411;28;20457;-77
2021/09/09 07:00:55;;;;;;;17.97;8.97;;;19.40;69.40;;;;;;5054535;28;20487;-77
2021/09/09 07:03:21;;;;;;;11.90;8.77;;;19.50;68.40;;;;;;5054971;28;20502;-77
2021/09/09 07:05:48;;;;;;;10.63;8.80;;;19.50;69.40;;;;;;5054347;28;20635;-78
2021/09/09 07:08:17;;;;;;;13.17;9.60;;;19.80;69.00;;;;;;5055495;28;20522;-77
2021/09/09 07:10:43;;;;;;;16.50;9.70;;;20.10;67.90;;;;;;5051100;28;20573;-77
2021/09/09 07:13:10;;;;;;;11.70;9.70;;;20.30;65.40;;;;;;5039019;28;20432;-75
2021/09/09 07:15:38;;;;;;;11.33;9.20;;;20.50;64.70;;;;;;5039018;28;20454;-76
2021/09/09 07:18:05;;;;;;;12.33;10.27;;;20.70;62.00;;;;;;5051386;28;20482;-76
2021/09/09 07:20:32;;;;;;;10.20;8.73;;;20.90;60.80;;;;;;5054334;28;20473;-76
2021/09/09 07:22:59;;;;;;;10.47;8.60;;;20.90;60.40;;;;;;5053946;28;20516;-76
2021/09/09 07:25:27;;;;;;;11.23;8.90;;;21.00;59.50;;;;;;5054799;28;20461;-76
2021/09/09 07:27:54;;;;;;;11.70;9.10;;;21.20;59.70;;;;;;5027394;28;20834;-76
2021/09/09 07:30:21;;;;;;;10.37;9.37;;;21.40;59.50;;;;;;5022318;28;20496;-76
2021/09/09 07:32:47;;;;;;;10.47;9.43;;;21.40;58.60;;;;;;5028788;28;20558;-76
2021/09/09 07:35:14;;;;;;;11.40;10.20;;;21.60;58.00;;;;;;5039446;28;20448;-77
2021/09/09 07:37:41;;;;;;;11.10;9.73;;;21.50;57.50;;;;;;5033461;28;20471;-76
2021/09/09 07:40:09;;;;;;;13.30;9.30;;;21.50;57.90;;;;;;5033447;28;20968;-77
2021/09/09 07:42:37;;;;;;;11.43;9.43;;;21.50;57.60;;;;;;5034093;28;20432;-76
2021/09/09 07:45:05;;;;;;;10.73;9.57;;;21.60;57.70;;;;;;5033311;28;20509;-77
2021/09/09 07:47:32;;;;;;;11.70;9.93;;;21.60;57.50;;;;;;5033740;28;20427;-76
2021/09/09 07:49:59;;;;;;;10.53;9.50;;;21.70;57.30;;;;;;5028983;28;20434;-77
2021/09/09 07:52:26;;;;;;;14.27;9.27;;;21.80;57.30;;;;;;5029507;28;20462;-76
2021/09/09 07:54:53;;;;;;;10.63;9.53;;;21.90;56.90;;;;;;5031289;28;20484;-76
2021/09/09 07:57:20;;;;;;;10.83;9.83;;;22.00;56.60;;;;;;5027962;28;20596;-76
2021/09/09 07:59:48;;;;;;;10.07;9.07;;;22.10;57.30;;;;;;5036250;28;20457;-76
2021/09/09 08:02:16;;;;;;;12.53;9.30;;;22.10;56.80;;;;;;5033492;28;20467;-76
2021/09/09 08:04:45;;;;;;;11.60;10.40;;;22.20;57.00;;;;;;5040584;28;20435;-77
2021/09/09 08:07:12;;;;;;;11.23;9.60;;;22.30;56.40;;;;;;5033745;28;20455;-77
2021/09/09 08:09:39;;;;;;;10.00;9.00;;;22.50;55.60;;;;;;5038610;28;20551;-76
2021/09/09 08:12:07;;;;;;;10.40;9.40;;;22.50;55.60;;;;;;5035614;28;21010;-75
2021/09/09 08:14:34;;;;;;;10.80;9.70;;;22.60;55.30;;;;;;5037027;28;20460;-77
2021/09/09 08:17:02;;;;;;;12.13;9.83;;;22.50;55.20;;;;;;5036501;28;20906;-77
2021/09/09 08:19:29;;;;;;;14.03;10.27;;;22.60;55.50;;;;;;5014866;28;20439;-77
2021/09/09 08:21:56;;;;;;;17.10;9.67;;;22.60;55.30;;;;;;5035542;28;20962;-76
2021/09/09 08:24:23;;;;;;;11.83;9.47;;;22.80;54.70;;;;;;5053862;28;21129;-76
2021/09/09 08:26:50;;;;;;;9.97;8.97;;;22.90;53.50;;;;;;5042790;28;20893;-76
2021/09/09 08:29:17;;;;;;;10.80;9.53;;;23.10;53.20;;;;;;5035368;28;20473;-77
2021/09/09 08:31:44;;;;;;;11.37;8.93;;;23.10;52.60;;;;;;5045858;28;20488;-77
2021/09/09 08:34:12;;;;;;;12.43;8.87;;;23.20;51.80;;;;;;5058681;28;20495;-77
2021/09/09 08:36:39;;;;;;;10.10;8.40;;;23.20;51.80;;;;;;5053196;28;20720;-77
2021/09/09 08:39:06;;;;;;;12.17;9.23;;;23.20;51.90;;;;;;5036465;28;20827;-77
2021/09/09 08:41:33;;;;;;;9.73;8.53;;;23.30;51.50;;;;;;5036743;28;20947;-77
2021/09/09 08:44:00;;;;;;;9.37;8.37;;;23.50;50.80;;;;;;5040856;28;20467;-77
2021/09/09 08:46:28;;;;;;;12.80;7.47;;;23.60;50.50;;;;;;5042845;28;20481;-77
2021/09/09 08:48:57;;;;;;;10.80;7.33;;;23.80;48.70;;;;;;5057394;28;20513;-76
2021/09/09 08:51:26;;;;;;;12.80;8.23;;;23.80;48.40;;;;;;5047270;28;20819;-77
2021/09/09 08:53:53;;;;;;;11.20;7.17;;;23.80;49.40;;;;;;5034597;28;20727;-77
2021/09/09 08:56:21;;;;;;;10.30;6.97;;;23.80;49.20;;;;;;5044974;28;20489;-77
2021/09/09 08:58:48;;;;;;;8.23;7.33;;;23.70;49.40;;;;;;5042640;28;20454;-78
2021/09/09 09:01:17;;;;;;;11.97;7.77;;;23.70;50.20;;;;;;5054412;28;20488;-78
2021/09/09 09:03:46;;;;;;;21.40;9.10;;;23.60;50.40;;;;;;5067307;28;20468;-78
2021/09/09 09:06:34;;;;;;;8.77;7.87;;;23.80;50.20;;;;;;5063501;28;20463;-77
2021/09/09 09:09:04;;;;;;;9.50;7.17;;;24.10;50.00;;;;;;5056656;28;20463;-77
2021/09/09 09:11:32;;;;;;;7.57;6.87;;;24.30;49.10;;;;;;5038857;28;20464;-77
2021/09/09 09:14:00;;;;;;;11.70;6.80;;;24.40;48.80;;;;;;5037933;28;20548;-77
2021/09/09 09:16:31;;;;;;;8.80;6.60;;;24.60;48.30;;;;;;5062165;28;20443;-77
2021/09/09 09:19:02;;;;;;;6.87;5.80;;;24.60;48.10;;;;;;5070039;28;20543;-77
2021/09/09 09:21:33;;;;;;;8.43;5.50;;;24.80;47.40;;;;;;5044275;28;20843;-77
2021/09/09 09:24:04;;;;;;;8.83;6.53;;;24.90;46.80;;;;;;5045976;28;20436;-76
2021/09/09 09:26:30;;;;;;;8.30;6.13;;;24.90;46.60;;;;;;5058427;28;20440;-77
2021/09/09 09:29:02;;;;;;;6.90;6.07;;;25.00;46.80;;;;;;5058248;28;20463;-78
2021/09/09 09:31:30;;;;;;;8.57;5.63;;;24.80;47.10;;;;;;5053758;28;20504;-78
2021/09/09 09:33:59;;;;;;;10.50;5.87;;;24.60;47.70;;;;;;5054504;28;20470;-78
2021/09/09 09:36:29;;;;;;;8.60;5.53;;;24.60;48.20;;;;;;5035416;28;20535;-77
2021/09/09 09:39:06;;;;;;;10.73;5.83;;;24.70;47.70;;;;;;5034339;28;20519;-78
2021/09/09 09:41:33;;;;;;;8.40;5.30;;;24.80;47.30;;;;;;5055335;28;20481;-78
2021/09/09 09:44:03;;;;;;;9.10;5.10;;;24.90;47.20;;;;;;5054492;28;20443;-77
2021/09/09 09:46:33;;;;;;;7.20;4.73;;;24.90;47.00;;;;;;5035968;28;20461;-77
2021/09/09 09:49:24;;;;;;;6.20;4.83;;;25.00;46.90;;;;;;5035148;28;20822;-77
2021/09/09 09:51:52;;;;;;;6.50;5.00;;;25.10;46.50;;;;;;5036021;28;20477;-77
2021/09/09 09:54:24;;;;;;;5.03;4.27;;;25.00;47.00;;;;;;5034817;28;20454;-78
2021/09/09 09:56:51;;;;;;;5.00;4.50;;;25.10;46.90;;;;;;5059962;28;20508;-77
2021/09/09 09:59:19;;;;;;;5.03;4.50;;;25.10;45.70;;;;;;5060373;28;20511;-77
2021/09/09 10:01:46;;;;;;;5.40;4.50;;;25.00;45.80;;;;;;5060367;28;20455;-78
2021/09/09 10:04:15;;;;;;;6.40;5.00;;;25.10;45.70;;;;;;5059297;28;20442;-78
2021/09/09 10:06:44;;;;;;;5.70;5.10;;;25.20;45.50;;;;;;5059213;28;20484;-79
2021/09/09 10:09:13;;;;;;;6.17;4.47;;;25.40;45.50;;;;;;5060460;28;20489;-77
2021/09/09 10:11:42;;;;;;;6.47;4.17;;;25.60;44.10;;;;;;5057474;28;20534;-77
2021/09/09 10:14:10;;;;;;;5.93;4.83;;;25.40;44.70;;;;;;5059431;28;20456;-79
2021/09/09 10:16:42;;;;;;;8.90;4.70;;;25.40;44.90;;;;;;5043658;28;20915;-76
2021/09/09 10:19:12;;;;;;;8.10;4.30;;;25.60;43.90;;;;;;5037817;28;20519;-76
2021/09/09 10:21:45;;;;;;;5.13;4.63;;;25.70;44.00;;;;;;5037456;28;20563;-77
2021/09/09 10:24:16;;;;;;;4.93;4.53;;;25.70;44.00;;;;;;5036549;28;20830;-77
2021/09/09 10:26:45;;;;;;;5.50;4.90;;;25.50;43.80;;;;;;5036606;28;20420;-77
2021/09/09 10:29:45;;;;;;;6.53;4.20;;;25.30;44.80;;;;;;5037544;28;20461;-77
2021/09/09 10:32:47;;;;;;;5.30;4.43;;;25.30;45.00;;;;;;5033807;28;20516;-78
2021/09/09 10:35:36;;;;;;;5.47;4.30;;;25.20;45.30;;;;;;5017230;28;20461;-79
2021/09/09 10:38:25;;;;;;;6.33;5.37;;;25.50;44.60;;;;;;5023630;28;20495;-80
2021/09/09 10:40:52;;;;;;;6.23;5.57;;;25.50;43.80;;;;;;5021011;28;20450;-79
2021/09/09 10:43:47;;;;;;;9.70;5.00;;;25.10;45.30;;;;;;5033476;28;20436;-79
2021/09/09 10:46:16;;;;;;;9.97;5.07;;;24.80;46.50;;;;;;5055050;28;20434;-78
2021/09/09 10:48:46;;;;;;;7.97;5.10;;;24.80;46.50;;;;;;5057440;28;20436;-82
2021/09/09 10:51:18;;;;;;;8.87;5.27;;;25.00;46.50;;;;;;5057054;28;20475;-77
2021/09/09 10:53:52;;;;;;;5.33;4.60;;;25.20;46.10;;;;;;5064582;28;20887;-78
2021/09/09 10:56:21;;;;;;;5.00;4.60;;;25.50;45.50;;;;;;5067123;28;20411;-79
2021/09/09 10:59:10;;;;;;;5.30;4.40;;;25.50;45.50;;;;;;5065333;28;20459;-78
2021/09/09 11:01:38;;;;;;;6.33;4.63;;;25.30;46.40;;;;;;5061382;28;20461;-78
2021/09/09 11:04:07;;;;;;;5.43;4.57;;;25.30;46.70;;;;;;5029166;28;20403;-78
2021/09/09 11:06:34;;;;;;;5.37;4.77;;;25.20;46.80;;;;;;5041573;28;20842;-79
2021/09/09 11:09:13;;;;;;;5.73;4.63;;;25.30;47.20;;;;;;5028108;28;20480;-78
2021/09/09 11:11:46;;;;;;;4.77;4.33;;;25.40;46.60;;;;;;5022954;28;20577;-78
2021/09/09 11:14:14;;;;;;;5.00;4.50;;;25.60;46.10;;;;;;5027973;28;20543;-78
2021/09/09 11:16:43;;;;;;;5.20;4.80;;;25.60;46.00;;;;;;5045441;28;20461;-79
2021/09/09 11:19:10;;;;;;;7.00;5.30;;;25.80;45.60;;;;;;5049022;28;20452;-78
2021/09/09 11:21:41;;;;;;;5.37;4.87;;;25.90;44.10;;;;;;5044420;28;20495;-77
2021/09/09 11:24:10;;;;;;;5.70;5.23;;;25.70;44.00;;;;;;5037264;28;20436;-78
2021/09/09 11:26:38;;;;;;;5.20;4.70;;;25.70;44.00;;;;;;5022445;28;20442;-78
2021/09/09 11:29:05;;;;;;;6.10;4.77;;;25.80;44.10;;;;;;5020874;28;20447;-78
2021/09/09 11:31:45;;;;;;;9.27;4.60;;;25.90;44.20;;;;;;5039767;28;20809;-78
2021/09/09 11:34:12;;;;;;;6.50;4.90;;;25.90;44.10;;;;;;5043259;28;20441;-79
2021/09/09 11:36:42;;;;;;;4.93;4.53;;;25.80;44.00;;;;;;5047963;28;20448;-78
2021/09/09 11:39:10;;;;;;;5.50;5.00;;;25.70;45.20;;;;;;5044689;28;20490;-79
2021/09/09 11:41:38;;;;;;;11.00;4.70;;;25.50;45.40;;;;;;5038047;28;20470;-77
2021/09/09 11:44:07;;;;;;;6.13;5.30;;;25.30;45.70;;;;;;5056163;28;20453;-78
2021/09/09 11:46:37;;;;;;;8.47;4.87;;;25.40;45.40;;;;;;5060892;28;20455;-78
2021/09/09 11:49:06;;;;;;;6.73;5.27;;;25.70;44.00;;;;;;5047152;28;20473;-79
2021/09/09 11:51:36;;;;;;;6.13;5.20;;;25.70;44.00;;;;;;5042687;28;20478;-79
2021/09/09 11:54:05;;;;;;;5.90;5.40;;;25.70;44.60;;;;;;5041239;28;20437;-79
2021/09/09 11:56:32;;;;;;;8.47;5.00;;;25.60;45.30;;;;;;5039175;28;20491;-78
2021/09/09 11:59:01;;;;;;;6.23;5.73;;;25.50;45.70;;;;;;5039693;28;20514;-78
2021/09/09 12:01:30;;;;;;;7.20;4.90;;;25.70;44.80;;;;;;5044119;28;20460;-78
2021/09/09 12:04:00;;;;;;;5.63;4.93;;;25.80;44.00;;;;;;5048594;28;20429;-79
2021/09/09 12:06:27;;;;;;;5.67;5.10;;;25.90;44.10;;;;;;5039000;28;20421;-78
2021/09/09 12:08:54;;;;;;;8.43;5.07;;;26.00;41.20;;;;;;5036510;28;20549;-79
2021/09/09 12:11:21;;;;;;;6.00;5.50;;;26.00;40.60;;;;;;5034649;28;20497;-79
2021/09/09 12:13:48;;;;;;;9.40;5.37;;;26.10;40.10;;;;;;5035425;28;20489;-79
2021/09/09 12:16:18;;;;;;;5.43;4.90;;;26.20;40.00;;;;;;5033648;28;20528;-78
2021/09/09 12:18:46;;;;;;;5.37;4.33;;;26.10;40.60;;;;;;5040436;28;20896;-78
2021/09/09 12:21:16;;;;;;;5.17;4.67;;;25.90;41.10;;;;;;5051741;28;20572;-78
2021/09/09 12:24:01;;;;;;;5.70;4.70;;;25.70;41.60;;;;;;5044473;28;20431;-77
2021/09/09 12:26:28;;;;;;;7.70;5.20;;;25.50;42.50;;;;;;5032461;28;20531;-77
2021/09/09 12:28:55;;;;;;;5.50;5.00;;;25.60;42.30;;;;;;5019890;28;20519;-77
2021/09/09 12:31:33;;;;;;;9.60;6.10;;;25.50;42.80;;;;;;5015532;28;20998;-77
2021/09/09 12:34:00;;;;;;;7.90;5.17;;;25.40;42.70;;;;;;5043639;28;20469;-78
2021/09/09 12:36:40;;;;;;;8.10;5.70;;;25.40;42.50;;;;;;5059485;28;20499;-79
2021/09/09 12:39:07;;;;;;;7.10;6.13;;;25.40;43.30;;;;;;5047190;28;20462;-78
2021/09/09 12:41:34;;;;;;;6.73;5.27;;;25.40;42.30;;;;;;5037398;28;20462;-77
2021/09/09 12:44:19;;;;;;;7.67;5.27;;;25.60;41.10;;;;;;5049458;28;20477;-77
2021/09/09 12:46:48;;;;;;;6.63;5.53;;;25.50;39.30;;;;;;5057405;28;20772;-77
2021/09/09 12:49:25;;;;;;;8.33;6.50;;;25.40;39.10;;;;;;5062074;28;20432;-77